Weather History for KFLP - January, 2014

Change the Weather History Date:

Thursday, January 23, 2014

  Actual Average Record
Temperature  
Mean Temperature 20 °F -  
Max Temperature 32 °F 45 °F 75 °F (2002)
Min Temperature 6 °F 25 °F 6 °F (2003)
Degree Days  
Heating Degree Days 45    
Moisture  
Dew Point -4 °F    
Average Humidity 36    
Maximum Humidity 56    
Minimum Humidity 28    
Precipitation  
Precipitation 0.00 in - - ()
Sea Level Pressure  
Sea Level Pressure 30.60 in    
Wind  
Wind Speed 9 mph (NNW)    
Max Wind Speed 16 mph    
Max Gust Speed 24 mph    
Visibility 10 miles    
Events      
Averages and records for this station are not official NWS values.
T = Trace of Precipitation, MM = Missing Value Source: NWS Daily Summary

Daily Weather History Graph

Daily Weather History Graph

Search for Another Location

Airport or City:

Trip Planner

Search our weather history database for the weather conditions in past years. The results will help you decide how hot, cold, wet, or windy it might be!

Date:

Astronomy

Jan. 23, 2014 Rise Set
Actual Time 7:17 AM CST 5:27 PM CST
Civil Twilight 6:49 AM CST 5:54 PM CST
Nautical Twilight 6:18 AM CST 6:26 PM CST
Astronomical Twilight 5:48 AM CST 6:56 PM CST
Moon No Moon Rise 11:06 AM CST (1/23)
Length of Visible Light 11h 04m
Length of Day
10h 09m
Waning Gibbous, 55% of the Moon is Illuminated
Jan 23
Waning Gibbous
Jan 23
Last Quarter
Jan 30
New
Feb 6
First Quarter
Feb 14
Full

Hourly Weather History & Observations

Time (CST) Temp. Windchill Dew Point Humidity Pressure Visibility Wind Dir Wind Speed Gust Speed Precip Events Conditions
12:15 AM 32.0 °F 28.7 °F 10.4 °F 41% 30.25 in 10.0 mi NW 3.5 mph - N/A   Partly Cloudy
12:35 AM 32.0 °F 27.5 °F 10.4 °F 41% 30.26 in 10.0 mi NNW 4.6 mph - N/A   Clear
12:55 AM 32.0 °F 23.6 °F 10.4 °F 41% 30.26 in 10.0 mi North 10.4 mph - N/A   Clear
1:15 AM 32.0 °F 22.5 °F 8.6 °F 38% 30.28 in 10.0 mi North 12.7 mph 17.3 mph N/A   Clear
1:35 AM 30.2 °F 19.3 °F 8.6 °F 40% 30.29 in 10.0 mi North 15.0 mph 20.7 mph N/A   Clear
1:55 AM 30.2 °F 21.3 °F 6.8 °F 37% 30.31 in 10.0 mi NNE 10.4 mph 18.4 mph N/A   Clear
2:15 AM 28.4 °F 17.0 °F 8.6 °F 43% 30.34 in 10.0 mi North 15.0 mph 20.7 mph N/A   Clear
2:35 AM 28.4 °F 18.0 °F 8.6 °F 43% 30.35 in 10.0 mi NNW 12.7 mph 20.7 mph N/A   Clear
2:55 AM 26.6 °F 16.8 °F 8.6 °F 47% 30.36 in 10.0 mi North 10.4 mph 17.3 mph N/A   Clear
3:15 AM 26.6 °F 17.5 °F 8.6 °F 47% 30.37 in 10.0 mi North 9.2 mph - N/A   Partly Cloudy
3:35 AM 24.8 °F 14.6 °F 6.8 °F 46% 30.38 in 10.0 mi North 10.4 mph - N/A   Partly Cloudy
3:55 AM 24.8 °F 13.4 °F 1.4 °F 36% 30.40 in 10.0 mi North 12.7 mph 20.7 mph N/A   Scattered Clouds
4:15 AM 23.0 °F 11.7 °F -2.2 °F 33% 30.42 in 10.0 mi North 11.5 mph 18.4 mph N/A   Mostly Cloudy
4:35 AM 21.2 °F 9.5 °F -0.4 °F 39% 30.43 in 10.0 mi NNW 11.5 mph 17.3 mph N/A   Scattered Clouds
4:55 AM 21.2 °F 8.9 °F -0.4 °F 39% 30.44 in 10.0 mi North 12.7 mph 17.3 mph N/A   Clear
5:15 AM 21.2 °F 9.5 °F -2.2 °F 36% 30.45 in 10.0 mi North 11.5 mph - N/A   Clear
5:35 AM 19.4 °F 6.6 °F -4.0 °F 36% 30.47 in 10.0 mi North 12.7 mph - N/A   Clear
5:55 AM 17.6 °F 3.2 °F -7.6 °F 32% 30.49 in 10.0 mi NNE 15.0 mph 24.2 mph N/A   Clear
6:15 AM 17.6 °F 5.7 °F -9.4 °F 30% 30.51 in 10.0 mi North 10.4 mph 16.1 mph N/A   Partly Cloudy
6:35 AM 17.6 °F 7.3 °F -7.6 °F 32% 30.53 in 10.0 mi North 8.1 mph - N/A   Clear
6:55 AM 15.8 °F 4.2 °F -7.6 °F 35% 30.54 in 10.0 mi North 9.2 mph - N/A   Clear
7:15 AM 15.8 °F 3.4 °F -5.8 °F 38% 30.55 in 10.0 mi North 10.4 mph - N/A   Clear
7:35 AM 15.8 °F 3.4 °F -5.8 °F 38% 30.57 in 10.0 mi NNE 10.4 mph - N/A   Clear
7:55 AM 15.8 °F 0.9 °F -4.0 °F 41% 30.58 in 10.0 mi NNW 15.0 mph 18.4 mph N/A   Clear
8:15 AM 14.0 °F -1.4 °F -5.8 °F 41% 30.60 in 10.0 mi North 15.0 mph 21.9 mph N/A   Clear
8:35 AM 14.0 °F -2.0 °F -9.4 °F 35% 30.61 in 10.0 mi North 16.1 mph 21.9 mph N/A   Clear
8:55 AM 14.0 °F 1.2 °F -9.4 °F 35% 30.63 in 10.0 mi North 10.4 mph 16.1 mph N/A   Clear
9:15 AM 15.8 °F 1.4 °F -7.6 °F 35% 30.64 in 10.0 mi North 13.8 mph 20.7 mph N/A   Clear
9:35 AM 15.8 °F 0.9 °F -9.4 °F 32% 30.66 in 10.0 mi NNE 15.0 mph 20.7 mph N/A   Clear
9:55 AM 15.8 °F 2.7 °F -7.6 °F 35% 30.67 in 10.0 mi North 11.5 mph 20.7 mph N/A   Clear
10:15 AM 15.8 °F 2.7 °F -7.6 °F 35% 30.68 in 10.0 mi North 11.5 mph 19.6 mph N/A   Clear
10:35 AM 17.6 °F 6.4 °F -7.6 °F 32% 30.69 in 10.0 mi North 9.2 mph 17.3 mph N/A   Clear
10:55 AM 17.6 °F 6.4 °F -5.8 °F 35% 30.69 in 10.0 mi North 9.2 mph - N/A   Clear
11:15 AM 17.6 °F - -5.8 °F 35% 30.69 in 10.0 mi Calm Calm - N/A   Clear
11:35 AM 17.6 °F - -5.8 °F 35% 30.69 in 10.0 mi Calm Calm - N/A   Clear
11:55 AM 17.6 °F 5.0 °F -5.8 °F 35% 30.69 in 10.0 mi North 11.5 mph 16.1 mph N/A   Partly Cloudy
12:15 PM 17.6 °F 5.0 °F -5.8 °F 35% 30.68 in 10.0 mi North 11.5 mph 16.1 mph N/A   Clear
12:55 PM 19.4 °F 7.2 °F -7.6 °F 30% 30.68 in 10.0 mi NW 11.5 mph 16.1 mph N/A   Clear
1:15 PM 19.4 °F 6.6 °F -7.6 °F 30% 30.68 in 10.0 mi NW 12.7 mph - N/A   Clear
1:35 PM 17.6 °F 5.7 °F -7.6 °F 32% 30.68 in 10.0 mi North 10.4 mph 16.1 mph N/A   Clear
1:55 PM 19.4 °F 7.9 °F -5.8 °F 33% 30.68 in 10.0 mi NNW 10.4 mph - N/A   Clear
2:15 PM 19.4 °F 7.9 °F -7.6 °F 30% 30.67 in 10.0 mi North 10.4 mph 17.3 mph N/A   Clear
2:35 PM 19.4 °F 7.9 °F -5.8 °F 33% 30.67 in 10.0 mi North 10.4 mph 16.1 mph N/A   Clear
2:55 PM 21.2 °F 8.9 °F -7.6 °F 28% 30.67 in 10.0 mi North 12.7 mph 17.3 mph N/A   Clear
3:15 PM 21.2 °F 10.1 °F -7.6 °F 28% 30.67 in 10.0 mi North 10.4 mph - N/A   Clear
3:35 PM 21.2 °F 10.1 °F -7.6 °F 28% 30.67 in 10.0 mi NNW 10.4 mph - N/A   Clear
3:55 PM 21.2 °F 10.1 °F -7.6 °F 28% 30.67 in 10.0 mi North 10.4 mph - N/A   Clear
4:15 PM 19.4 °F 6.6 °F -7.6 °F 30% 30.68 in 10.0 mi NNW 12.7 mph 17.3 mph N/A   Clear
4:35 PM 19.4 °F 9.5 °F -9.4 °F 28% 30.68 in 10.0 mi North 8.1 mph - N/A   Clear
4:55 PM 19.4 °F 10.4 °F -7.6 °F 30% 30.69 in 10.0 mi NNW 6.9 mph - N/A   Clear
5:15 PM 17.6 °F 8.2 °F -7.6 °F 32% 30.69 in 10.0 mi NNW 6.9 mph - N/A   Clear
5:35 PM 17.6 °F 9.3 °F -7.6 °F 32% 30.70 in 10.0 mi NNW 5.8 mph - N/A   Clear
5:55 PM 17.6 °F 10.7 °F -7.6 °F 32% 30.70 in 10.0 mi NNW 4.6 mph - N/A   Clear
6:15 PM 17.6 °F 12.3 °F -7.6 °F 32% 30.71 in 10.0 mi NW 3.5 mph - N/A   Clear
6:35 PM 15.8 °F 8.6 °F -7.6 °F 35% 30.71 in 10.0 mi NW 4.6 mph - N/A   Clear
6:55 PM 15.8 °F 8.6 °F -7.6 °F 35% 30.72 in 10.0 mi NW 4.6 mph - N/A   Clear
7:15 PM 15.8 °F 7.2 °F -7.6 °F 35% 30.72 in 10.0 mi NW 5.8 mph - N/A   Clear
7:35 PM 15.8 °F 6.1 °F -7.6 °F 35% 30.73 in 10.0 mi NNW 6.9 mph - N/A   Clear
7:55 PM 15.8 °F 7.2 °F -7.6 °F 35% 30.73 in 10.0 mi NNW 5.8 mph - N/A   Clear
8:15 PM 15.8 °F 6.1 °F -7.6 °F 35% 30.73 in 10.0 mi NNW 6.9 mph - N/A   Clear
8:35 PM 14.0 °F 6.5 °F -7.6 °F 38% 30.73 in 10.0 mi NW 4.6 mph - N/A   Clear
8:55 PM 14.0 °F 5.1 °F -7.6 °F 38% 30.73 in 10.0 mi NNW 5.8 mph - N/A   Clear
9:15 PM 14.0 °F 8.2 °F -7.6 °F 38% 30.74 in 10.0 mi NNW 3.5 mph - N/A   Clear
9:35 PM 14.0 °F 6.5 °F -7.6 °F 38% 30.74 in 10.0 mi NNW 4.6 mph - N/A   Clear
9:55 PM 12.2 °F - -7.6 °F 41% 30.74 in 10.0 mi Calm Calm - N/A   Clear
10:15 PM 10.4 °F 4.0 °F -7.6 °F 44% 30.75 in 10.0 mi WNW 3.5 mph - N/A   Clear
10:35 PM 12.2 °F 6.1 °F -7.6 °F 41% 30.75 in 10.0 mi NW 3.5 mph - N/A   Clear
10:55 PM 10.4 °F 2.2 °F -7.6 °F 44% 30.74 in 10.0 mi NNW 4.6 mph - N/A   Clear
11:15 PM 10.4 °F 2.2 °F -7.6 °F 44% 30.74 in 10.0 mi NW 4.6 mph - N/A   Clear
11:35 PM 8.6 °F - -7.6 °F 48% 30.74 in 10.0 mi Calm Calm - N/A   Clear
11:55 PM 6.8 °F - -5.8 °F 56% 30.73 in 10.0 mi Calm Calm - N/A   Clear